sensor_id;sensor_type;location;lat;lon;timestamp;P1;durP1;ratioP1;P2;durP2;ratioP2
28862;SDS011;15994;51.796;13.006;2023-02-15T00:01:38;53.80;;;26.58;;
28862;SDS011;15994;51.796;13.006;2023-02-15T00:04:05;109.93;;;25.17;;
28862;SDS011;15994;51.796;13.006;2023-02-15T00:06:32;146.15;;;23.58;;
28862;SDS011;15994;51.796;13.006;2023-02-15T00:08:59;86.00;;;25.95;;
28862;SDS011;15994;51.796;13.006;2023-02-15T00:11:26;60.63;;;25.90;;
28862;SDS011;15994;51.796;13.006;2023-02-15T00:14:19;68.20;;;25.58;;
28862;SDS011;15994;51.796;13.006;2023-02-15T00:16:47;94.45;;;24.35;;
28862;SDS011;15994;51.796;13.006;2023-02-15T00:19:16;57.42;;;26.55;;
28862;SDS011;15994;51.796;13.006;2023-02-15T00:21:44;60.08;;;25.77;;
28862;SDS011;15994;51.796;13.006;2023-02-15T00:24:12;75.38;;;25.45;;
28862;SDS011;15994;51.796;13.006;2023-02-15T00:26:40;79.45;;;26.35;;
28862;SDS011;15994;51.796;13.006;2023-02-15T00:29:08;69.40;;;28.50;;
28862;SDS011;15994;51.796;13.006;2023-02-15T00:31:35;77.20;;;27.48;;
28862;SDS011;15994;51.796;13.006;2023-02-15T00:34:03;124.90;;;29.00;;
28862;SDS011;15994;51.796;13.006;2023-02-15T00:36:31;62.17;;;29.10;;
28862;SDS011;15994;51.796;13.006;2023-02-15T00:38:58;57.25;;;27.42;;
28862;SDS011;15994;51.796;13.006;2023-02-15T00:41:25;64.43;;;28.55;;
28862;SDS011;15994;51.796;13.006;2023-02-15T00:43:51;69.75;;;28.40;;
28862;SDS011;15994;51.796;13.006;2023-02-15T00:46:18;115.57;;;28.88;;
28862;SDS011;15994;51.796;13.006;2023-02-15T00:48:44;92.22;;;30.38;;
28862;SDS011;15994;51.796;13.006;2023-02-15T00:51:11;66.60;;;29.25;;
28862;SDS011;15994;51.796;13.006;2023-02-15T00:53:37;61.42;;;29.15;;
28862;SDS011;15994;51.796;13.006;2023-02-15T00:56:04;80.40;;;27.05;;
28862;SDS011;15994;51.796;13.006;2023-02-15T00:58:31;79.60;;;29.27;;
28862;SDS011;15994;51.796;13.006;2023-02-15T01:01:02;70.65;;;28.80;;
28862;SDS011;15994;51.796;13.006;2023-02-15T01:03:34;109.68;;;27.58;;
28862;SDS011;15994;51.796;13.006;2023-02-15T01:06:01;116.07;;;28.13;;
28862;SDS011;15994;51.796;13.006;2023-02-15T01:08:28;90.68;;;24.27;;
28862;SDS011;15994;51.796;13.006;2023-02-15T01:10:55;89.80;;;24.05;;
28862;SDS011;15994;51.796;13.006;2023-02-15T01:13:22;94.40;;;23.02;;
28862;SDS011;15994;51.796;13.006;2023-02-15T01:15:52;88.10;;;25.30;;
28862;SDS011;15994;51.796;13.006;2023-02-15T01:18:20;80.78;;;24.77;;
28862;SDS011;15994;51.796;13.006;2023-02-15T01:20:48;58.55;;;22.17;;
28862;SDS011;15994;51.796;13.006;2023-02-15T01:23:14;77.10;;;24.23;;
28862;SDS011;15994;51.796;13.006;2023-02-15T01:25:41;72.47;;;24.52;;
28862;SDS011;15994;51.796;13.006;2023-02-15T01:28:07;55.22;;;25.17;;
28862;SDS011;15994;51.796;13.006;2023-02-15T01:30:34;63.78;;;25.02;;
28862;SDS011;15994;51.796;13.006;2023-02-15T01:33:01;51.35;;;26.77;;
28862;SDS011;15994;51.796;13.006;2023-02-15T01:35:27;56.55;;;28.55;;
28862;SDS011;15994;51.796;13.006;2023-02-15T01:37:54;74.25;;;28.45;;
28862;SDS011;15994;51.796;13.006;2023-02-15T01:40:22;77.32;;;26.90;;
28862;SDS011;15994;51.796;13.006;2023-02-15T01:42:53;70.03;;;26.95;;
28862;SDS011;15994;51.796;13.006;2023-02-15T01:45:28;78.13;;;27.27;;
28862;SDS011;15994;51.796;13.006;2023-02-15T01:48:04;52.65;;;26.08;;
28862;SDS011;15994;51.796;13.006;2023-02-15T01:50:34;58.53;;;26.20;;
28862;SDS011;15994;51.796;13.006;2023-02-15T01:55:45;65.75;;;30.30;;
28862;SDS011;15994;51.796;13.006;2023-02-15T01:58:15;81.05;;;27.83;;
28862;SDS011;15994;51.796;13.006;2023-02-15T02:00:43;81.30;;;27.42;;
28862;SDS011;15994;51.796;13.006;2023-02-15T02:03:10;65.30;;;28.65;;
28862;SDS011;15994;51.796;13.006;2023-02-15T02:05:37;63.10;;;27.13;;
28862;SDS011;15994;51.796;13.006;2023-02-15T02:08:05;76.60;;;25.67;;
28862;SDS011;15994;51.796;13.006;2023-02-15T02:10:34;73.40;;;26.98;;
28862;SDS011;15994;51.796;13.006;2023-02-15T02:13:03;69.93;;;27.85;;
28862;SDS011;15994;51.796;13.006;2023-02-15T02:21:30;81.78;;;37.22;;
28862;SDS011;15994;51.796;13.006;2023-02-15T02:38:08;69.25;;;23.60;;
28862;SDS011;15994;51.796;13.006;2023-02-15T02:40:55;60.30;;;22.70;;
28862;SDS011;15994;51.796;13.006;2023-02-15T02:44:30;66.78;;;25.20;;
28862;SDS011;15994;51.796;13.006;2023-02-15T02:46:51;66.03;;;24.98;;
28862;SDS011;15994;51.796;13.006;2023-02-15T02:49:38;42.25;;;21.65;;
28862;SDS011;15994;51.796;13.006;2023-02-15T02:52:31;43.53;;;20.40;;
28862;SDS011;15994;51.796;13.006;2023-02-15T02:55:10;42.97;;;20.52;;
28862;SDS011;15994;51.796;13.006;2023-02-15T03:00:35;44.03;;;20.42;;
28862;SDS011;15994;51.796;13.006;2023-02-15T03:03:09;46.97;;;20.83;;
28862;SDS011;15994;51.796;13.006;2023-02-15T03:05:41;41.20;;;20.58;;
28862;SDS011;15994;51.796;13.006;2023-02-15T03:08:11;48.70;;;22.33;;
28862;SDS011;15994;51.796;13.006;2023-02-15T03:10:46;54.45;;;22.40;;
28862;SDS011;15994;51.796;13.006;2023-02-15T03:13:13;54.45;;;23.00;;
28862;SDS011;15994;51.796;13.006;2023-02-15T03:15:40;67.80;;;24.20;;
28862;SDS011;15994;51.796;13.006;2023-02-15T03:18:28;45.65;;;21.60;;
28862;SDS011;15994;51.796;13.006;2023-02-15T03:21:22;50.97;;;22.85;;
28862;SDS011;15994;51.796;13.006;2023-02-15T03:24:04;41.90;;;21.42;;
28862;SDS011;15994;51.796;13.006;2023-02-15T03:26:38;42.92;;;21.85;;
28862;SDS011;15994;51.796;13.006;2023-02-15T03:29:07;45.00;;;20.63;;
28862;SDS011;15994;51.796;13.006;2023-02-15T03:31:38;46.28;;;22.92;;
28862;SDS011;15994;51.796;13.006;2023-02-15T03:34:09;50.55;;;22.27;;
28862;SDS011;15994;51.796;13.006;2023-02-15T03:37:25;43.05;;;22.52;;
28862;SDS011;15994;51.796;13.006;2023-02-15T03:43:01;48.75;;;21.88;;
28862;SDS011;15994;51.796;13.006;2023-02-15T03:45:51;41.17;;;22.92;;
28862;SDS011;15994;51.796;13.006;2023-02-15T03:48:22;40.42;;;21.10;;
28862;SDS011;15994;51.796;13.006;2023-02-15T03:50:57;43.47;;;21.75;;
28862;SDS011;15994;51.796;13.006;2023-02-15T03:53:45;37.85;;;20.52;;
28862;SDS011;15994;51.796;13.006;2023-02-15T03:56:14;44.50;;;22.23;;
28862;SDS011;15994;51.796;13.006;2023-02-15T03:58:40;43.60;;;23.13;;
28862;SDS011;15994;51.796;13.006;2023-02-15T04:01:38;46.25;;;23.02;;
28862;SDS011;15994;51.796;13.006;2023-02-15T04:04:28;44.50;;;23.15;;
28862;SDS011;15994;51.796;13.006;2023-02-15T04:07:05;45.30;;;22.15;;
28862;SDS011;15994;51.796;13.006;2023-02-15T04:09:33;42.67;;;22.58;;
28862;SDS011;15994;51.796;13.006;2023-02-15T04:12:17;40.00;;;22.77;;
28862;SDS011;15994;51.796;13.006;2023-02-15T04:14:43;43.58;;;24.02;;
28862;SDS011;15994;51.796;13.006;2023-02-15T04:17:27;52.85;;;23.20;;
28862;SDS011;15994;51.796;13.006;2023-02-15T04:19:54;41.83;;;22.38;;
28862;SDS011;15994;51.796;13.006;2023-02-15T04:22:38;44.28;;;23.48;;
28862;SDS011;15994;51.796;13.006;2023-02-15T04:25:22;51.58;;;24.48;;
28862;SDS011;15994;51.796;13.006;2023-02-15T04:27:50;55.85;;;26.58;;
28862;SDS011;15994;51.796;13.006;2023-02-15T04:30:20;52.15;;;26.08;;
28862;SDS011;15994;51.796;13.006;2023-02-15T04:32:48;53.05;;;25.92;;
28862;SDS011;15994;51.796;13.006;2023-02-15T04:35:15;64.18;;;27.15;;
28862;SDS011;15994;51.796;13.006;2023-02-15T04:37:42;57.63;;;25.73;;
28862;SDS011;15994;51.796;13.006;2023-02-15T04:40:10;62.50;;;27.42;;
28862;SDS011;15994;51.796;13.006;2023-02-15T04:42:38;58.63;;;26.38;;
28862;SDS011;15994;51.796;13.006;2023-02-15T04:45:05;52.70;;;27.67;;
28862;SDS011;15994;51.796;13.006;2023-02-15T04:47:31;51.47;;;26.92;;
28862;SDS011;15994;51.796;13.006;2023-02-15T04:49:58;62.00;;;28.58;;
28862;SDS011;15994;51.796;13.006;2023-02-15T04:52:24;61.75;;;30.90;;
28862;SDS011;15994;51.796;13.006;2023-02-15T04:54:51;70.63;;;30.63;;
28862;SDS011;15994;51.796;13.006;2023-02-15T04:57:17;62.15;;;30.83;;
28862;SDS011;15994;51.796;13.006;2023-02-15T04:59:44;66.25;;;30.75;;
28862;SDS011;15994;51.796;13.006;2023-02-15T05:02:10;67.30;;;29.63;;
28862;SDS011;15994;51.796;13.006;2023-02-15T05:04:37;58.42;;;30.05;;
28862;SDS011;15994;51.796;13.006;2023-02-15T05:07:03;64.50;;;29.10;;
28862;SDS011;15994;51.796;13.006;2023-02-15T05:09:30;62.33;;;28.52;;
28862;SDS011;15994;51.796;13.006;2023-02-15T05:11:56;55.17;;;28.60;;
28862;SDS011;15994;51.796;13.006;2023-02-15T05:14:23;59.28;;;29.63;;
28862;SDS011;15994;51.796;13.006;2023-02-15T05:16:49;63.45;;;29.05;;
28862;SDS011;15994;51.796;13.006;2023-02-15T05:19:16;51.80;;;26.63;;
28862;SDS011;15994;51.796;13.006;2023-02-15T05:21:42;74.50;;;28.75;;
28862;SDS011;15994;51.796;13.006;2023-02-15T05:24:09;57.60;;;28.23;;
28862;SDS011;15994;51.796;13.006;2023-02-15T05:26:49;68.88;;;30.35;;
28862;SDS011;15994;51.796;13.006;2023-02-15T05:29:33;67.88;;;29.80;;
28862;SDS011;15994;51.796;13.006;2023-02-15T05:32:00;64.88;;;29.77;;
28862;SDS011;15994;51.796;13.006;2023-02-15T05:34:29;60.63;;;30.20;;
28862;SDS011;15994;51.796;13.006;2023-02-15T05:36:59;60.22;;;31.10;;
28862;SDS011;15994;51.796;13.006;2023-02-15T05:39:25;56.72;;;29.42;;
28862;SDS011;15994;51.796;13.006;2023-02-15T05:41:52;62.63;;;30.15;;
28862;SDS011;15994;51.796;13.006;2023-02-15T05:44:18;59.97;;;30.38;;
28862;SDS011;15994;51.796;13.006;2023-02-15T05:46:45;56.45;;;28.80;;
28862;SDS011;15994;51.796;13.006;2023-02-15T05:49:11;64.78;;;32.05;;
28862;SDS011;15994;51.796;13.006;2023-02-15T05:51:37;61.67;;;31.75;;
28862;SDS011;15994;51.796;13.006;2023-02-15T05:54:04;69.47;;;31.90;;
28862;SDS011;15994;51.796;13.006;2023-02-15T05:56:30;63.78;;;31.35;;
28862;SDS011;15994;51.796;13.006;2023-02-15T05:58:57;63.22;;;31.00;;
28862;SDS011;15994;51.796;13.006;2023-02-15T06:01:23;64.80;;;32.00;;
28862;SDS011;15994;51.796;13.006;2023-02-15T06:03:50;66.20;;;32.42;;
28862;SDS011;15994;51.796;13.006;2023-02-15T06:06:17;64.95;;;31.40;;
28862;SDS011;15994;51.796;13.006;2023-02-15T06:08:43;66.72;;;32.28;;
28862;SDS011;15994;51.796;13.006;2023-02-15T06:11:10;67.18;;;31.58;;
28862;SDS011;15994;51.796;13.006;2023-02-15T06:13:36;61.33;;;30.50;;
28862;SDS011;15994;51.796;13.006;2023-02-15T06:16:03;61.05;;;30.42;;
28862;SDS011;15994;51.796;13.006;2023-02-15T06:18:29;62.38;;;31.70;;
28862;SDS011;15994;51.796;13.006;2023-02-15T06:20:56;59.80;;;31.05;;
28862;SDS011;15994;51.796;13.006;2023-02-15T06:23:23;61.53;;;31.92;;
28862;SDS011;15994;51.796;13.006;2023-02-15T06:25:49;63.95;;;30.88;;
28862;SDS011;15994;51.796;13.006;2023-02-15T06:28:16;61.05;;;30.83;;
28862;SDS011;15994;51.796;13.006;2023-02-15T06:30:42;72.93;;;32.75;;
28862;SDS011;15994;51.796;13.006;2023-02-15T06:33:09;69.40;;;33.42;;
28862;SDS011;15994;51.796;13.006;2023-02-15T06:35:35;70.78;;;32.40;;
28862;SDS011;15994;51.796;13.006;2023-02-15T06:38:02;66.47;;;33.20;;
28862;SDS011;15994;51.796;13.006;2023-02-15T06:40:28;62.28;;;32.10;;
28862;SDS011;15994;51.796;13.006;2023-02-15T06:42:55;64.47;;;31.80;;
28862;SDS011;15994;51.796;13.006;2023-02-15T06:45:21;63.08;;;31.60;;
28862;SDS011;15994;51.796;13.006;2023-02-15T06:47:48;62.10;;;31.55;;
28862;SDS011;15994;51.796;13.006;2023-02-15T06:50:14;63.35;;;31.73;;
28862;SDS011;15994;51.796;13.006;2023-02-15T06:52:41;67.28;;;33.38;;
28862;SDS011;15994;51.796;13.006;2023-02-15T06:55:07;65.35;;;32.88;;
28862;SDS011;15994;51.796;13.006;2023-02-15T06:57:34;65.28;;;32.35;;
28862;SDS011;15994;51.796;13.006;2023-02-15T07:00:01;63.22;;;32.22;;
28862;SDS011;15994;51.796;13.006;2023-02-15T07:02:29;65.07;;;31.88;;
28862;SDS011;15994;51.796;13.006;2023-02-15T07:04:56;66.47;;;32.20;;
28862;SDS011;15994;51.796;13.006;2023-02-15T07:07:23;66.55;;;32.97;;
28862;SDS011;15994;51.796;13.006;2023-02-15T07:09:49;63.38;;;32.65;;
28862;SDS011;15994;51.796;13.006;2023-02-15T07:12:16;63.47;;;32.13;;
28862;SDS011;15994;51.796;13.006;2023-02-15T07:15:00;71.32;;;34.08;;
28862;SDS011;15994;51.796;13.006;2023-02-15T07:17:26;65.07;;;31.67;;
28862;SDS011;15994;51.796;13.006;2023-02-15T07:19:54;60.28;;;30.80;;
28862;SDS011;15994;51.796;13.006;2023-02-15T07:22:21;59.55;;;30.95;;
28862;SDS011;15994;51.796;13.006;2023-02-15T07:24:47;63.63;;;32.08;;
28862;SDS011;15994;51.796;13.006;2023-02-15T07:27:14;60.22;;;31.15;;
28862;SDS011;15994;51.796;13.006;2023-02-15T07:29:41;66.03;;;31.35;;
28862;SDS011;15994;51.796;13.006;2023-02-15T07:32:07;75.88;;;41.05;;
28862;SDS011;15994;51.796;13.006;2023-02-15T07:34:34;70.25;;;38.42;;
28862;SDS011;15994;51.796;13.006;2023-02-15T07:37:01;71.63;;;36.40;;
28862;SDS011;15994;51.796;13.006;2023-02-15T07:39:27;63.80;;;33.30;;
28862;SDS011;15994;51.796;13.006;2023-02-15T07:41:54;61.00;;;30.63;;
28862;SDS011;15994;51.796;13.006;2023-02-15T07:44:20;60.33;;;31.52;;
28862;SDS011;15994;51.796;13.006;2023-02-15T07:46:47;59.25;;;31.08;;
28862;SDS011;15994;51.796;13.006;2023-02-15T07:49:13;58.78;;;31.27;;
28862;SDS011;15994;51.796;13.006;2023-02-15T07:51:40;61.50;;;32.17;;
28862;SDS011;15994;51.796;13.006;2023-02-15T07:54:07;55.80;;;30.08;;
28862;SDS011;15994;51.796;13.006;2023-02-15T07:56:35;57.40;;;30.00;;
28862;SDS011;15994;51.796;13.006;2023-02-15T07:59:02;56.65;;;29.83;;
28862;SDS011;15994;51.796;13.006;2023-02-15T08:01:33;54.88;;;29.48;;
28862;SDS011;15994;51.796;13.006;2023-02-15T08:04:02;52.40;;;28.45;;
28862;SDS011;15994;51.796;13.006;2023-02-15T08:06:31;55.88;;;29.73;;
28862;SDS011;15994;51.796;13.006;2023-02-15T08:08:58;50.15;;;28.40;;
28862;SDS011;15994;51.796;13.006;2023-02-15T08:11:26;53.42;;;29.15;;
28862;SDS011;15994;51.796;13.006;2023-02-15T08:14:03;48.20;;;27.83;;
28862;SDS011;15994;51.796;13.006;2023-02-15T08:16:36;50.55;;;27.38;;
28862;SDS011;15994;51.796;13.006;2023-02-15T08:19:10;50.22;;;28.58;;
28862;SDS011;15994;51.796;13.006;2023-02-15T08:21:40;49.58;;;28.17;;
28862;SDS011;15994;51.796;13.006;2023-02-15T08:24:08;48.83;;;27.15;;
28862;SDS011;15994;51.796;13.006;2023-02-15T08:26:36;46.50;;;25.70;;
28862;SDS011;15994;51.796;13.006;2023-02-15T08:29:04;48.58;;;27.40;;
28862;SDS011;15994;51.796;13.006;2023-02-15T08:31:32;44.97;;;26.10;;
28862;SDS011;15994;51.796;13.006;2023-02-15T08:34:00;43.80;;;26.35;;
28862;SDS011;15994;51.796;13.006;2023-02-15T08:36:27;39.95;;;24.58;;
28862;SDS011;15994;51.796;13.006;2023-02-15T08:38:59;40.85;;;24.58;;
28862;SDS011;15994;51.796;13.006;2023-02-15T08:41:28;40.13;;;23.67;;
28862;SDS011;15994;51.796;13.006;2023-02-15T08:43:57;39.03;;;24.77;;
28862;SDS011;15994;51.796;13.006;2023-02-15T08:46:27;35.75;;;22.45;;
28862;SDS011;15994;51.796;13.006;2023-02-15T08:48:55;36.75;;;22.58;;
28862;SDS011;15994;51.796;13.006;2023-02-15T08:51:23;34.47;;;20.73;;
28862;SDS011;15994;51.796;13.006;2023-02-15T08:53:52;34.53;;;21.25;;
28862;SDS011;15994;51.796;13.006;2023-02-15T08:56:21;31.92;;;20.55;;
28862;SDS011;15994;51.796;13.006;2023-02-15T08:58:49;30.00;;;19.98;;
28862;SDS011;15994;51.796;13.006;2023-02-15T09:01:17;29.92;;;19.10;;
28862;SDS011;15994;51.796;13.006;2023-02-15T09:03:49;32.45;;;21.13;;
28862;SDS011;15994;51.796;13.006;2023-02-15T09:06:18;30.48;;;19.25;;
28862;SDS011;15994;51.796;13.006;2023-02-15T09:08:45;27.63;;;17.98;;
28862;SDS011;15994;51.796;13.006;2023-02-15T09:11:13;24.63;;;16.42;;
28862;SDS011;15994;51.796;13.006;2023-02-15T09:13:47;23.43;;;15.60;;
28862;SDS011;15994;51.796;13.006;2023-02-15T09:16:15;23.50;;;15.63;;
28862;SDS011;15994;51.796;13.006;2023-02-15T09:18:42;22.02;;;14.60;;
28862;SDS011;15994;51.796;13.006;2023-02-15T09:21:10;22.25;;;14.77;;
28862;SDS011;15994;51.796;13.006;2023-02-15T09:23:39;23.52;;;15.07;;
28862;SDS011;15994;51.796;13.006;2023-02-15T09:26:11;23.60;;;15.05;;
28862;SDS011;15994;51.796;13.006;2023-02-15T09:28:39;18.77;;;13.90;;
28862;SDS011;15994;51.796;13.006;2023-02-15T09:31:07;20.00;;;13.98;;
28862;SDS011;15994;51.796;13.006;2023-02-15T09:33:39;17.88;;;13.02;;
28862;SDS011;15994;51.796;13.006;2023-02-15T09:36:13;18.98;;;13.27;;
28862;SDS011;15994;51.796;13.006;2023-02-15T09:38:50;19.38;;;13.60;;
28862;SDS011;15994;51.796;13.006;2023-02-15T09:50:30;17.92;;;12.57;;
28862;SDS011;15994;51.796;13.006;2023-02-15T09:53:28;19.20;;;13.23;;
28862;SDS011;15994;51.796;13.006;2023-02-15T09:56:06;17.35;;;12.68;;
28862;SDS011;15994;51.796;13.006;2023-02-15T10:01:30;17.50;;;12.20;;
28862;SDS011;15994;51.796;13.006;2023-02-15T10:18:53;18.23;;;12.82;;
28862;SDS011;15994;51.796;13.006;2023-02-15T10:26:49;16.42;;;12.40;;
28862;SDS011;15994;51.796;13.006;2023-02-15T10:32:16;19.20;;;12.88;;
28862;SDS011;15994;51.796;13.006;2023-02-15T10:34:52;17.60;;;13.13;;
28862;SDS011;15994;51.796;13.006;2023-02-15T10:42:58;20.40;;;13.82;;
28862;SDS011;15994;51.796;13.006;2023-02-15T10:45:49;22.70;;;13.88;;
28862;SDS011;15994;51.796;13.006;2023-02-15T10:48:53;22.38;;;16.08;;
28862;SDS011;15994;51.796;13.006;2023-02-15T10:51:38;21.45;;;14.60;;
28862;SDS011;15994;51.796;13.006;2023-02-15T10:54:31;19.75;;;14.55;;
28862;SDS011;15994;51.796;13.006;2023-02-15T10:57:02;23.10;;;14.82;;
28862;SDS011;15994;51.796;13.006;2023-02-15T10:59:55;19.95;;;14.23;;
28862;SDS011;15994;51.796;13.006;2023-02-15T11:02:40;19.00;;;13.73;;
28862;SDS011;15994;51.796;13.006;2023-02-15T11:05:30;18.63;;;13.32;;
28862;SDS011;15994;51.796;13.006;2023-02-15T11:08:20;19.30;;;13.55;;
28862;SDS011;15994;51.796;13.006;2023-02-15T11:10:49;18.63;;;13.80;;
28862;SDS011;15994;51.796;13.006;2023-02-15T11:13:21;17.92;;;13.65;;
28862;SDS011;15994;51.796;13.006;2023-02-15T11:15:53;19.50;;;13.93;;
28862;SDS011;15994;51.796;13.006;2023-02-15T11:21:07;18.95;;;13.57;;
28862;SDS011;15994;51.796;13.006;2023-02-15T11:23:36;18.65;;;13.55;;
28862;SDS011;15994;51.796;13.006;2023-02-15T11:31:38;18.45;;;12.50;;
28862;SDS011;15994;51.796;13.006;2023-02-15T11:34:31;18.73;;;12.77;;
28862;SDS011;15994;51.796;13.006;2023-02-15T11:37:04;18.35;;;13.02;;
28862;SDS011;15994;51.796;13.006;2023-02-15T11:39:36;19.17;;;13.55;;
28862;SDS011;15994;51.796;13.006;2023-02-15T11:42:07;18.00;;;12.52;;
28862;SDS011;15994;51.796;13.006;2023-02-15T11:44:52;19.20;;;12.65;;
28862;SDS011;15994;51.796;13.006;2023-02-15T11:47:26;18.08;;;13.80;;
28862;SDS011;15994;51.796;13.006;2023-02-15T11:49:53;19.30;;;13.90;;
28862;SDS011;15994;51.796;13.006;2023-02-15T11:52:20;19.02;;;13.40;;
28862;SDS011;15994;51.796;13.006;2023-02-15T11:54:47;21.42;;;15.25;;
28862;SDS011;15994;51.796;13.006;2023-02-15T11:57:22;21.38;;;14.93;;
28862;SDS011;15994;51.796;13.006;2023-02-15T12:00:15;19.75;;;14.63;;
28862;SDS011;15994;51.796;13.006;2023-02-15T12:02:50;21.88;;;14.95;;
28862;SDS011;15994;51.796;13.006;2023-02-15T12:05:20;19.90;;;14.43;;
28862;SDS011;15994;51.796;13.006;2023-02-15T12:07:52;20.48;;;14.02;;
28862;SDS011;15994;51.796;13.006;2023-02-15T12:10:36;18.80;;;13.63;;
28862;SDS011;15994;51.796;13.006;2023-02-15T12:13:09;17.10;;;13.00;;
28862;SDS011;15994;51.796;13.006;2023-02-15T12:15:42;18.88;;;14.02;;
28862;SDS011;15994;51.796;13.006;2023-02-15T12:18:21;19.95;;;14.75;;
28862;SDS011;15994;51.796;13.006;2023-02-15T12:21:06;22.25;;;14.70;;
28862;SDS011;15994;51.796;13.006;2023-02-15T12:23:40;20.95;;;13.70;;
28862;SDS011;15994;51.796;13.006;2023-02-15T12:26:14;18.23;;;13.52;;
28862;SDS011;15994;51.796;13.006;2023-02-15T12:29:00;20.10;;;13.80;;
28862;SDS011;15994;51.796;13.006;2023-02-15T12:31:37;18.05;;;14.15;;
28862;SDS011;15994;51.796;13.006;2023-02-15T12:34:14;18.88;;;13.18;;
28862;SDS011;15994;51.796;13.006;2023-02-15T12:36:54;18.33;;;13.20;;
28862;SDS011;15994;51.796;13.006;2023-02-15T12:39:27;19.95;;;13.82;;
28862;SDS011;15994;51.796;13.006;2023-02-15T12:44:25;20.08;;;13.98;;
28862;SDS011;15994;51.796;13.006;2023-02-15T12:47:03;19.27;;;13.90;;
28862;SDS011;15994;51.796;13.006;2023-02-15T12:49:32;19.13;;;13.95;;
28862;SDS011;15994;51.796;13.006;2023-02-15T12:52:01;20.50;;;13.75;;
28862;SDS011;15994;51.796;13.006;2023-02-15T12:57:27;19.27;;;13.02;;
28862;SDS011;15994;51.796;13.006;2023-02-15T12:59:58;18.63;;;13.85;;
28862;SDS011;15994;51.796;13.006;2023-02-15T13:02:36;17.50;;;12.68;;
28862;SDS011;15994;51.796;13.006;2023-02-15T13:05:24;17.67;;;12.18;;
28862;SDS011;15994;51.796;13.006;2023-02-15T13:07:56;18.40;;;13.40;;
28862;SDS011;15994;51.796;13.006;2023-02-15T13:10:28;16.95;;;12.32;;
28862;SDS011;15994;51.796;13.006;2023-02-15T13:12:58;16.00;;;12.45;;
28862;SDS011;15994;51.796;13.006;2023-02-15T13:18:02;17.02;;;12.20;;
28862;SDS011;15994;51.796;13.006;2023-02-15T13:20:31;15.80;;;12.35;;
28862;SDS011;15994;51.796;13.006;2023-02-15T13:23:03;15.93;;;12.15;;
28862;SDS011;15994;51.796;13.006;2023-02-15T13:25:44;16.52;;;12.05;;
28862;SDS011;15994;51.796;13.006;2023-02-15T13:28:15;17.55;;;12.43;;
28862;SDS011;15994;51.796;13.006;2023-02-15T13:30:45;17.85;;;12.35;;
28862;SDS011;15994;51.796;13.006;2023-02-15T13:35:57;17.25;;;11.80;;
28862;SDS011;15994;51.796;13.006;2023-02-15T13:38:40;15.68;;;11.30;;
28862;SDS011;15994;51.796;13.006;2023-02-15T13:41:27;15.82;;;11.95;;
28862;SDS011;15994;51.796;13.006;2023-02-15T13:44:16;16.27;;;12.40;;
28862;SDS011;15994;51.796;13.006;2023-02-15T13:52:52;17.48;;;11.88;;
28862;SDS011;15994;51.796;13.006;2023-02-15T13:55:32;17.10;;;12.07;;
28862;SDS011;15994;51.796;13.006;2023-02-15T14:01:21;14.45;;;11.10;;
28862;SDS011;15994;51.796;13.006;2023-02-15T14:06:47;15.32;;;11.48;;
28862;SDS011;15994;51.796;13.006;2023-02-15T14:12:22;16.20;;;10.75;;
28862;SDS011;15994;51.796;13.006;2023-02-15T14:24:08;13.43;;;9.55;;
28862;SDS011;15994;51.796;13.006;2023-02-15T14:32:14;13.32;;;9.35;;
28862;SDS011;15994;51.796;13.006;2023-02-15T14:34:52;12.93;;;9.10;;
28862;SDS011;15994;51.796;13.006;2023-02-15T14:37:23;11.90;;;8.70;;
28862;SDS011;15994;51.796;13.006;2023-02-15T14:48:54;10.30;;;7.97;;
28862;SDS011;15994;51.796;13.006;2023-02-15T14:54:07;10.07;;;7.60;;
28862;SDS011;15994;51.796;13.006;2023-02-15T14:56:35;11.32;;;7.07;;
28862;SDS011;15994;51.796;13.006;2023-02-15T14:59:17;9.65;;;7.25;;
28862;SDS011;15994;51.796;13.006;2023-02-15T15:05:06;9.00;;;6.50;;
28862;SDS011;15994;51.796;13.006;2023-02-15T15:12:45;8.93;;;5.95;;
28862;SDS011;15994;51.796;13.006;2023-02-15T15:17:59;10.45;;;6.70;;
28862;SDS011;15994;51.796;13.006;2023-02-15T15:25:42;8.63;;;5.90;;
28862;SDS011;15994;51.796;13.006;2023-02-15T15:31:01;8.50;;;5.65;;
28862;SDS011;15994;51.796;13.006;2023-02-15T15:42:21;8.15;;;5.75;;
28862;SDS011;15994;51.796;13.006;2023-02-15T15:45:22;9.57;;;6.25;;
28862;SDS011;15994;51.796;13.006;2023-02-15T15:51:14;7.88;;;5.88;;
28862;SDS011;15994;51.796;13.006;2023-02-15T15:53:47;8.93;;;5.35;;
28862;SDS011;15994;51.796;13.006;2023-02-15T15:56:19;10.50;;;5.50;;
28862;SDS011;15994;51.796;13.006;2023-02-15T15:59:00;9.90;;;6.03;;
28862;SDS011;15994;51.796;13.006;2023-02-15T16:01:37;10.00;;;5.95;;
28862;SDS011;15994;51.796;13.006;2023-02-15T16:04:12;9.30;;;5.88;;
28862;SDS011;15994;51.796;13.006;2023-02-15T16:06:47;9.40;;;6.68;;
28862;SDS011;15994;51.796;13.006;2023-02-15T16:11:45;8.77;;;5.90;;
28862;SDS011;15994;51.796;13.006;2023-02-15T16:14:16;10.45;;;6.07;;
28862;SDS011;15994;51.796;13.006;2023-02-15T16:16:53;10.07;;;6.30;;
28862;SDS011;15994;51.796;13.006;2023-02-15T16:19:23;10.82;;;6.60;;
28862;SDS011;15994;51.796;13.006;2023-02-15T16:21:53;9.13;;;6.47;;
28862;SDS011;15994;51.796;13.006;2023-02-15T16:29:36;12.52;;;7.22;;
28862;SDS011;15994;51.796;13.006;2023-02-15T16:32:14;11.48;;;6.82;;
28862;SDS011;15994;51.796;13.006;2023-02-15T16:34:56;10.85;;;7.10;;
28862;SDS011;15994;51.796;13.006;2023-02-15T16:37:27;9.95;;;6.75;;
28862;SDS011;15994;51.796;13.006;2023-02-15T16:39:59;13.50;;;8.65;;
28862;SDS011;15994;51.796;13.006;2023-02-15T16:42:26;12.40;;;8.57;;
28862;SDS011;15994;51.796;13.006;2023-02-15T16:47:39;12.68;;;8.65;;
28862;SDS011;15994;51.796;13.006;2023-02-15T16:52:59;11.68;;;7.68;;
28862;SDS011;15994;51.796;13.006;2023-02-15T16:55:28;13.65;;;8.80;;
28862;SDS011;15994;51.796;13.006;2023-02-15T16:58:07;13.52;;;8.27;;
28862;SDS011;15994;51.796;13.006;2023-02-15T17:00:41;14.25;;;8.27;;
28862;SDS011;15994;51.796;13.006;2023-02-15T17:05:41;13.98;;;8.07;;
28862;SDS011;15994;51.796;13.006;2023-02-15T17:13:25;12.38;;;8.35;;
28862;SDS011;15994;51.796;13.006;2023-02-15T17:18:26;14.65;;;9.32;;
28862;SDS011;15994;51.796;13.006;2023-02-15T17:20:56;16.02;;;10.10;;
28862;SDS011;15994;51.796;13.006;2023-02-15T17:23:33;13.68;;;9.40;;
28862;SDS011;15994;51.796;13.006;2023-02-15T17:26:10;15.43;;;9.68;;
28862;SDS011;15994;51.796;13.006;2023-02-15T17:28:40;15.65;;;9.85;;
28862;SDS011;15994;51.796;13.006;2023-02-15T17:31:31;18.50;;;10.82;;
28862;SDS011;15994;51.796;13.006;2023-02-15T17:33:59;14.98;;;10.93;;
28862;SDS011;15994;51.796;13.006;2023-02-15T17:36:28;18.92;;;11.82;;
28862;SDS011;15994;51.796;13.006;2023-02-15T17:39:04;19.13;;;11.60;;
28862;SDS011;15994;51.796;13.006;2023-02-15T17:41:34;17.85;;;12.07;;
28862;SDS011;15994;51.796;13.006;2023-02-15T17:44:02;14.85;;;9.63;;